Time;durP1;ratioP1;P1;durP2;ratioP2;P2;SDS_P1;SDS_P2;PMS_P1;PMS_P2;Temp;Humidity;BMP_temperature;BMP_pressure;BME280_temperature;BME280_humidity;BME280_pressure;Samples;Min_cycle;Max_cycle;Signal;HPM_P1;HPM_P2
2023/04/23 00:02:12;;;;;;;;;0.00;0.00;;;;;;;;5090752;27;61958;-72
2023/04/23 00:04:38;;;;;;;;;2.25;1.00;;;;;;;;5101005;27;61895;-72
2023/04/23 00:07:04;;;;;;;;;0.25;0.25;;;;;;;;5089458;27;61832;-72
2023/04/23 00:09:33;;;;;;;;;2.00;1.00;;;;;;;;5099196;27;63782;-72
2023/04/23 00:11:59;;;;;;;;;2.00;1.00;;;;;;;;5100510;27;61840;-72
2023/04/23 00:14:25;;;;;;;;;1.75;0.00;;;;;;;;5101815;27;61964;-72
2023/04/23 00:16:51;;;;;;;;;0.00;0.00;;;;;;;;5079615;27;62280;-72
2023/04/23 00:19:16;;;;;;;;;1.25;0.00;;;;;;;;5095974;27;61914;-71
2023/04/23 00:21:41;;;;;;;;;0.50;0.50;;;;;;;;5085241;27;62052;-72
2023/04/23 00:24:06;;;;;;;;;1.00;1.00;;;;;;;;5088709;27;61980;-72
2023/04/23 00:26:32;;;;;;;;;1.00;0.00;;;;;;;;5094061;27;62175;-72
2023/04/23 00:28:57;;;;;;;;;1.00;1.00;;;;;;;;5094026;27;62715;-72
2023/04/23 00:31:23;;;;;;;;;1.00;1.00;;;;;;;;5096883;27;61849;-72
2023/04/23 00:33:48;;;;;;;;;1.50;0.50;;;;;;;;5091597;27;61989;-72
2023/04/23 00:36:13;;;;;;;;;0.00;0.00;;;;;;;;5104074;27;61751;-71
2023/04/23 00:38:39;;;;;;;;;3.00;1.00;;;;;;;;5104251;27;62670;-72
2023/04/23 00:41:04;;;;;;;;;2.50;1.00;;;;;;;;5093519;27;62160;-72
2023/04/23 00:43:30;;;;;;;;;0.25;0.25;;;;;;;;5089740;27;62030;-72
2023/04/23 00:45:55;;;;;;;;;1.00;1.00;;;;;;;;5101861;27;62048;-72
2023/04/23 00:48:21;;;;;;;;;3.00;1.00;;;;;;;;5102787;27;61797;-72
2023/04/23 00:50:46;;;;;;;;;1.00;0.00;;;;;;;;5101340;27;62017;-71
2023/04/23 00:53:11;;;;;;;;;1.00;0.00;;;;;;;;5103026;27;62225;-71
2023/04/23 00:55:36;;;;;;;;;2.00;1.00;;;;;;;;5100270;27;61801;-72
2023/04/23 00:58:02;;;;;;;;;1.00;1.00;;;;;;;;5081916;27;62588;-72
2023/04/23 01:00:28;;;;;;;;;2.50;0.50;;;;;;;;5118141;27;62429;-72
2023/04/23 01:02:53;;;;;;;;;2.00;1.00;;;;;;;;5103358;27;61758;-71
2023/04/23 01:05:20;;;;;;;;;1.00;1.00;;;;;;;;5100513;27;61738;-72
2023/04/23 01:07:46;;;;;;;;;1.00;1.00;;;;;;;;5097045;27;61840;-72
2023/04/23 01:10:11;;;;;;;;;0.00;0.00;;;;;;;;5102377;27;61816;-72
2023/04/23 01:12:36;;;;;;;;;1.50;1.50;;;;;;;;5104494;27;61900;-71
2023/04/23 01:15:02;;;;;;;;;2.50;1.00;;;;;;;;5103131;27;62068;-72
2023/04/23 01:17:28;;;;;;;;;1.00;1.00;;;;;;;;5100913;27;62126;-72
2023/04/23 01:19:53;;;;;;;;;0.50;0.50;;;;;;;;5100367;27;62010;-73
2023/04/23 01:22:19;;;;;;;;;2.75;1.50;;;;;;;;5101161;27;62218;-72
2023/04/23 01:24:44;;;;;;;;;0.00;0.00;;;;;;;;5102146;27;61849;-72
2023/04/23 01:27:10;;;;;;;;;1.00;1.00;;;;;;;;5091205;27;61660;-72
2023/04/23 01:29:35;;;;;;;;;3.75;1.25;;;;;;;;5103667;27;61687;-72
2023/04/23 01:32:01;;;;;;;;;1.25;0.25;;;;;;;;5096887;27;61963;-72
2023/04/23 01:34:27;;;;;;;;;2.75;0.00;;;;;;;;5104286;27;62110;-72
2023/04/23 01:36:53;;;;;;;;;0.50;0.50;;;;;;;;5089553;27;62051;-72
2023/04/23 01:39:18;;;;;;;;;1.00;1.00;;;;;;;;5104131;27;61991;-72
2023/04/23 01:41:44;;;;;;;;;1.00;1.00;;;;;;;;5102317;27;61910;-72
2023/04/23 01:44:09;;;;;;;;;1.00;1.00;;;;;;;;5104280;27;61926;-72
2023/04/23 01:46:35;;;;;;;;;3.00;1.25;;;;;;;;5091915;27;62123;-72
2023/04/23 01:49:01;;;;;;;;;2.00;1.00;;;;;;;;5088024;27;62065;-71
2023/04/23 01:51:26;;;;;;;;;1.25;1.00;;;;;;;;5098182;27;62385;-72
2023/04/23 01:53:51;;;;;;;;;3.25;2.25;;;;;;;;5102633;27;62010;-72
2023/04/23 01:56:19;;;;;;;;;1.50;0.75;;;;;;;;5101393;27;62873;-71
2023/04/23 01:58:45;;;;;;;;;3.25;1.00;;;;;;;;5090826;27;62042;-71
2023/04/23 02:01:10;;;;;;;;;1.00;1.00;;;;;;;;5091524;27;62208;-72
2023/04/23 02:03:35;;;;;;;;;6.00;1.00;;;;;;;;5103843;27;62082;-72
2023/04/23 02:06:01;;;;;;;;;0.75;0.75;;;;;;;;5100664;27;64944;-71
2023/04/23 02:08:26;;;;;;;;;4.25;1.00;;;;;;;;5101539;27;61712;-72
2023/04/23 02:10:51;;;;;;;;;1.00;1.00;;;;;;;;5101942;27;61879;-71
2023/04/23 02:13:17;;;;;;;;;1.00;1.00;;;;;;;;5103108;27;62044;-72
2023/04/23 02:15:42;;;;;;;;;1.00;1.00;;;;;;;;5100558;27;62168;-72
2023/04/23 02:18:07;;;;;;;;;3.00;2.00;;;;;;;;5094543;27;61826;-71
2023/04/23 02:20:35;;;;;;;;;0.00;0.00;;;;;;;;5102395;27;61792;-71
2023/04/23 02:23:01;;;;;;;;;1.75;1.75;;;;;;;;5100803;27;61995;-72
2023/04/23 02:25:26;;;;;;;;;3.25;2.00;;;;;;;;5090670;27;62584;-71
2023/04/23 02:27:51;;;;;;;;;3.75;0.25;;;;;;;;5099039;27;62123;-71
2023/04/23 02:30:16;;;;;;;;;1.00;1.00;;;;;;;;5101410;27;61789;-72
2023/04/23 02:32:43;;;;;;;;;1.00;0.00;;;;;;;;5095632;27;62218;-72
2023/04/23 02:35:09;;;;;;;;;2.25;2.25;;;;;;;;5101932;27;62644;-72
2023/04/23 02:37:35;;;;;;;;;0.00;0.00;;;;;;;;5102306;27;61877;-72
2023/04/23 02:40:01;;;;;;;;;4.00;1.00;;;;;;;;5102480;27;61690;-72
2023/04/23 02:42:26;;;;;;;;;1.75;1.00;;;;;;;;5089547;27;61865;-72
2023/04/23 02:44:51;;;;;;;;;2.50;2.00;;;;;;;;5096748;27;61846;-72
2023/04/23 02:47:17;;;;;;;;;5.25;2.00;;;;;;;;5097400;27;61702;-72
2023/04/23 02:49:42;;;;;;;;;3.00;1.00;;;;;;;;5102183;27;61854;-72
2023/04/23 02:52:07;;;;;;;;;1.00;1.00;;;;;;;;5094552;27;62094;-72
2023/04/23 02:54:32;;;;;;;;;0.75;0.75;;;;;;;;5100661;27;63139;-71
2023/04/23 02:56:58;;;;;;;;;1.75;0.50;;;;;;;;5100153;27;61975;-71
2023/04/23 02:59:23;;;;;;;;;2.00;2.00;;;;;;;;5102448;27;62109;-72
2023/04/23 03:01:49;;;;;;;;;1.00;1.00;;;;;;;;5096082;27;61985;-72
2023/04/23 03:04:14;;;;;;;;;4.50;1.00;;;;;;;;5100551;27;64728;-72
2023/04/23 03:06:40;;;;;;;;;1.00;1.00;;;;;;;;5099655;27;62025;-72
2023/04/23 03:09:06;;;;;;;;;1.25;1.25;;;;;;;;5102656;27;61964;-72
2023/04/23 03:11:31;;;;;;;;;2.00;1.25;;;;;;;;5097482;27;62228;-72
2023/04/23 03:13:56;;;;;;;;;2.75;1.25;;;;;;;;5102033;27;61918;-72
2023/04/23 03:16:22;;;;;;;;;0.00;0.00;;;;;;;;5086019;27;62431;-72
2023/04/23 03:18:47;;;;;;;;;2.25;0.75;;;;;;;;5098244;27;61785;-72
2023/04/23 03:21:12;;;;;;;;;2.00;1.00;;;;;;;;5100855;27;62171;-72
2023/04/23 03:23:37;;;;;;;;;1.25;1.25;;;;;;;;5082093;27;62757;-72
2023/04/23 03:26:03;;;;;;;;;1.00;1.00;;;;;;;;5095852;27;62112;-71
2023/04/23 03:28:29;;;;;;;;;1.25;1.00;;;;;;;;5102115;27;61866;-71
2023/04/23 03:30:55;;;;;;;;;3.50;2.00;;;;;;;;5095531;27;61829;-72
2023/04/23 03:33:20;;;;;;;;;2.00;2.00;;;;;;;;5100579;27;61779;-71
2023/04/23 03:35:46;;;;;;;;;0.00;0.00;;;;;;;;5081903;27;61733;-71
2023/04/23 03:38:11;;;;;;;;;2.00;1.00;;;;;;;;5089630;27;61767;-72
2023/04/23 03:40:36;;;;;;;;;1.75;1.75;;;;;;;;5090651;27;61933;-72
2023/04/23 03:43:01;;;;;;;;;3.75;1.00;;;;;;;;5101531;27;62041;-71
2023/04/23 03:45:26;;;;;;;;;1.00;1.00;;;;;;;;5092262;27;61984;-72
2023/04/23 03:47:52;;;;;;;;;2.00;2.00;;;;;;;;5099754;27;61941;-71
2023/04/23 03:50:17;;;;;;;;;1.50;1.50;;;;;;;;5093721;27;61876;-71
2023/04/23 03:52:43;;;;;;;;;1.25;1.25;;;;;;;;5131590;27;61844;-72
2023/04/23 03:55:08;;;;;;;;;2.00;1.00;;;;;;;;5103726;27;62033;-71
2023/04/23 03:57:34;;;;;;;;;1.00;1.00;;;;;;;;5105180;27;61867;-71
2023/04/23 03:59:59;;;;;;;;;1.00;1.00;;;;;;;;5099797;27;61889;-72
2023/04/23 04:02:24;;;;;;;;;2.00;2.00;;;;;;;;5090867;27;62027;-72
2023/04/23 04:04:50;;;;;;;;;1.00;1.00;;;;;;;;5104919;27;62260;-72
2023/04/23 04:07:16;;;;;;;;;2.50;1.25;;;;;;;;5097323;27;61879;-71
2023/04/23 04:09:41;;;;;;;;;1.75;0.25;;;;;;;;5103083;27;61850;-72
2023/04/23 04:12:06;;;;;;;;;4.00;1.25;;;;;;;;5101638;27;61861;-72
2023/04/23 04:14:31;;;;;;;;;6.25;2.50;;;;;;;;5103944;27;61909;-71
2023/04/23 04:16:57;;;;;;;;;2.25;1.00;;;;;;;;5091165;27;62348;-72
2023/04/23 04:19:22;;;;;;;;;0.00;0.00;;;;;;;;5105352;27;61784;-72
2023/04/23 04:21:48;;;;;;;;;1.00;1.00;;;;;;;;5092308;27;61851;-72
2023/04/23 04:24:13;;;;;;;;;2.25;1.00;;;;;;;;5102638;27;61923;-72
2023/04/23 04:26:39;;;;;;;;;1.00;1.00;;;;;;;;5099534;27;62039;-71
2023/04/23 04:29:04;;;;;;;;;1.00;1.00;;;;;;;;5103770;27;62024;-72
2023/04/23 04:31:29;;;;;;;;;2.00;0.00;;;;;;;;5095092;27;61875;-72
2023/04/23 04:33:55;;;;;;;;;0.25;0.25;;;;;;;;5104370;27;61992;-72
2023/04/23 04:36:20;;;;;;;;;4.75;1.00;;;;;;;;5103128;27;62042;-71
2023/04/23 04:38:46;;;;;;;;;2.25;0.50;;;;;;;;5103707;27;61882;-72
2023/04/23 04:41:16;;;;;;;;;2.00;1.00;;;;;;;;5096068;27;62995;-71
2023/04/23 04:43:44;;;;;;;;;3.50;2.50;;;;;;;;5104709;27;61863;-72
2023/04/23 04:46:10;;;;;;;;;2.00;2.00;;;;;;;;5099226;27;62230;-72
2023/04/23 04:48:35;;;;;;;;;0.75;0.75;;;;;;;;5118532;27;62217;-72
2023/04/23 04:51:01;;;;;;;;;3.00;1.25;;;;;;;;5106347;27;62554;-72
2023/04/23 04:53:26;;;;;;;;;1.25;1.25;;;;;;;;5123616;27;61863;-71
2023/04/23 04:55:51;;;;;;;;;4.00;4.00;;;;;;;;5102910;27;62172;-72
2023/04/23 04:58:16;;;;;;;;;2.00;2.00;;;;;;;;5082060;28;62072;-71
2023/04/23 05:00:42;;;;;;;;;1.00;1.00;;;;;;;;5098213;27;62231;-71
2023/04/23 05:03:07;;;;;;;;;1.00;1.00;;;;;;;;5103776;27;62218;-71
2023/04/23 05:05:32;;;;;;;;;3.00;1.25;;;;;;;;5099187;27;62467;-71
2023/04/23 05:08:00;;;;;;;;;2.00;2.00;;;;;;;;5104155;27;61969;-72
2023/04/23 05:10:26;;;;;;;;;5.50;3.00;;;;;;;;5101734;27;61956;-72
2023/04/23 05:12:51;;;;;;;;;3.75;1.00;;;;;;;;5104415;27;62122;-71
2023/04/23 05:15:17;;;;;;;;;2.00;2.00;;;;;;;;5102235;27;62041;-72
2023/04/23 05:17:42;;;;;;;;;5.75;4.00;;;;;;;;5103599;27;61747;-72
2023/04/23 05:20:09;;;;;;;;;3.00;2.00;;;;;;;;5102981;27;61854;-71
2023/04/23 05:22:36;;;;;;;;;2.00;2.00;;;;;;;;5103342;27;62124;-71
2023/04/23 05:25:01;;;;;;;;;2.75;1.75;;;;;;;;5084010;27;62373;-72
2023/04/23 05:27:27;;;;;;;;;3.50;3.00;;;;;;;;5103620;27;61906;-71
2023/04/23 05:29:52;;;;;;;;;2.00;2.00;;;;;;;;5098573;27;61733;-71
2023/04/23 05:32:17;;;;;;;;;2.25;1.50;;;;;;;;5100033;27;61706;-71
2023/04/23 05:34:43;;;;;;;;;4.00;1.25;;;;;;;;5102652;27;61691;-71
2023/04/23 05:37:08;;;;;;;;;2.25;1.50;;;;;;;;5096324;27;61917;-72
2023/04/23 05:39:33;;;;;;;;;3.25;1.75;;;;;;;;5103229;27;61834;-72
2023/04/23 05:41:58;;;;;;;;;2.50;2.50;;;;;;;;5090473;27;61799;-74
2023/04/23 05:44:24;;;;;;;;;2.75;2.00;;;;;;;;5104004;27;62088;-73
2023/04/23 05:46:49;;;;;;;;;2.25;2.25;;;;;;;;5101624;27;62618;-72
2023/04/23 05:49:14;;;;;;;;;1.00;1.00;;;;;;;;5103257;27;61939;-72
2023/04/23 05:51:40;;;;;;;;;3.00;1.00;;;;;;;;5100804;27;62200;-73
2023/04/23 05:54:05;;;;;;;;;3.00;2.00;;;;;;;;5103790;27;61739;-73
2023/04/23 05:56:30;;;;;;;;;4.75;1.00;;;;;;;;5100012;27;62112;-73
2023/04/23 05:58:56;;;;;;;;;3.00;2.00;;;;;;;;5103142;27;63114;-72
2023/04/23 06:01:21;;;;;;;;;2.00;1.00;;;;;;;;5098370;27;62111;-73
2023/04/23 06:03:46;;;;;;;;;1.75;1.50;;;;;;;;5098707;27;62299;-73
2023/04/23 06:06:12;;;;;;;;;1.00;1.00;;;;;;;;5098594;27;62215;-73
2023/04/23 06:08:38;;;;;;;;;1.75;1.00;;;;;;;;5111095;27;62111;-73
2023/04/23 06:11:04;;;;;;;;;2.25;1.00;;;;;;;;5105443;27;61848;-73
2023/04/23 06:13:29;;;;;;;;;2.00;2.00;;;;;;;;5111767;27;62539;-73
2023/04/23 06:15:55;;;;;;;;;2.25;2.00;;;;;;;;5099990;27;61846;-78
2023/04/23 06:18:20;;;;;;;;;2.00;2.00;;;;;;;;5098927;27;62041;-76
2023/04/23 06:20:47;;;;;;;;;4.50;1.25;;;;;;;;5099788;27;62048;-77
2023/04/23 06:23:12;;;;;;;;;1.00;1.00;;;;;;;;5103328;27;61781;-78
2023/04/23 06:25:38;;;;;;;;;3.50;1.75;;;;;;;;5099586;27;62102;-80
2023/04/23 06:28:03;;;;;;;;;2.00;0.50;;;;;;;;5104468;27;62661;-78
2023/04/23 06:30:29;;;;;;;;;2.00;1.00;;;;;;;;5090721;27;62051;-82
2023/04/23 06:32:54;;;;;;;;;2.00;1.00;;;;;;;;5082788;27;61901;-78
2023/04/23 06:35:19;;;;;;;;;1.25;1.00;;;;;;;;5101650;27;61928;-78
2023/04/23 06:37:44;;;;;;;;;1.00;1.00;;;;;;;;5102702;27;61967;-74
2023/04/23 06:40:10;;;;;;;;;1.50;1.50;;;;;;;;5098846;27;62390;-74
2023/04/23 06:42:35;;;;;;;;;1.00;1.00;;;;;;;;5102578;27;61833;-74
2023/04/23 06:45:03;;;;;;;;;4.50;2.00;;;;;;;;5097345;27;62285;-79
2023/04/23 06:47:31;;;;;;;;;1.00;1.00;;;;;;;;5098740;27;62043;-84
2023/04/23 06:49:57;;;;;;;;;3.00;2.00;;;;;;;;5100802;27;61878;-80
2023/04/23 06:52:22;;;;;;;;;1.00;1.00;;;;;;;;5082676;27;61910;-77
2023/04/23 06:54:47;;;;;;;;;4.75;2.00;;;;;;;;5096287;27;62683;-79
2023/04/23 06:57:13;;;;;;;;;2.00;2.00;;;;;;;;5109743;27;63688;-77
2023/04/23 06:59:38;;;;;;;;;4.25;2.00;;;;;;;;5118069;27;61816;-75
2023/04/23 07:02:03;;;;;;;;;6.00;2.00;;;;;;;;5100006;27;61968;-80
2023/04/23 07:04:29;;;;;;;;;4.25;3.00;;;;;;;;5101735;27;62372;-81
2023/04/23 07:06:54;;;;;;;;;3.75;2.75;;;;;;;;5098575;27;65178;-80
2023/04/23 07:09:19;;;;;;;;;4.50;2.00;;;;;;;;5093989;27;61833;-79
2023/04/23 07:11:44;;;;;;;;;2.00;2.00;;;;;;;;5099881;27;61859;-76
2023/04/23 07:14:10;;;;;;;;;2.00;2.00;;;;;;;;5102633;27;62072;-79
2023/04/23 07:16:35;;;;;;;;;3.25;3.00;;;;;;;;5094977;27;62801;-75
2023/04/23 07:19:01;;;;;;;;;3.75;2.75;;;;;;;;5101799;27;62254;-78
2023/04/23 07:21:27;;;;;;;;;4.50;2.75;;;;;;;;5098607;27;61902;-78
2023/04/23 07:23:53;;;;;;;;;4.75;3.50;;;;;;;;5100498;27;62009;-76
2023/04/23 07:26:20;;;;;;;;;3.00;3.00;;;;;;;;5093226;27;62072;-76
2023/04/23 07:28:47;;;;;;;;;2.00;2.00;;;;;;;;5106934;27;61850;-75
2023/04/23 07:31:12;;;;;;;;;5.50;3.50;;;;;;;;5101156;27;61946;-77
2023/04/23 07:33:38;;;;;;;;;3.00;3.00;;;;;;;;5103886;27;62065;-78
2023/04/23 07:36:03;;;;;;;;;2.25;2.25;;;;;;;;5103890;27;63247;-75
2023/04/23 07:38:29;;;;;;;;;4.00;2.50;;;;;;;;5106737;27;61959;-74
2023/04/23 07:40:54;;;;;;;;;4.00;4.00;;;;;;;;5100811;27;61967;-77
2023/04/23 07:43:20;;;;;;;;;4.00;4.00;;;;;;;;5104695;27;62033;-74
2023/04/23 07:45:45;;;;;;;;;2.25;2.25;;;;;;;;5117485;27;61970;-78
2023/04/23 07:48:10;;;;;;;;;4.25;4.00;;;;;;;;5099857;27;61952;-79
2023/04/23 07:50:36;;;;;;;;;3.50;3.00;;;;;;;;5106543;27;62499;-77
2023/04/23 07:53:02;;;;;;;;;5.75;3.00;;;;;;;;5107562;27;62603;-76
2023/04/23 07:55:32;;;;;;;;;4.75;2.50;;;;;;;;5102755;27;63529;-77
2023/04/23 07:57:58;;;;;;;;;3.25;3.25;;;;;;;;5101481;27;61858;-77
2023/04/23 08:00:24;;;;;;;;;7.00;6.25;;;;;;;;5108659;27;62020;-78
2023/04/23 08:02:51;;;;;;;;;6.75;4.25;;;;;;;;5102461;27;62200;-77
2023/04/23 08:05:18;;;;;;;;;5.50;4.50;;;;;;;;5098352;27;62706;-75
2023/04/23 08:07:43;;;;;;;;;4.00;4.00;;;;;;;;5097148;27;61959;-75
2023/04/23 08:10:09;;;;;;;;;3.00;3.00;;;;;;;;5107188;27;61947;-75
2023/04/23 08:12:35;;;;;;;;;4.50;4.50;;;;;;;;5114307;27;61936;-76
2023/04/23 08:15:00;;;;;;;;;4.00;4.00;;;;;;;;5101150;27;62642;-76
2023/04/23 08:17:25;;;;;;;;;4.75;3.50;;;;;;;;5093962;27;62313;-75
2023/04/23 08:19:51;;;;;;;;;4.25;4.00;;;;;;;;5095337;27;61812;-76
2023/04/23 08:22:16;;;;;;;;;5.00;5.00;;;;;;;;5099662;27;62146;-77
2023/04/23 08:24:45;;;;;;;;;7.50;6.00;;;;;;;;5101906;27;63605;-75
2023/04/23 08:27:10;;;;;;;;;6.50;5.25;;;;;;;;5090465;27;62111;-76
2023/04/23 08:29:36;;;;;;;;;3.00;3.00;;;;;;;;5102346;27;61952;-76
2023/04/23 08:32:01;;;;;;;;;5.00;5.00;;;;;;;;5104920;27;62240;-75
2023/04/23 08:34:26;;;;;;;;;5.25;4.00;;;;;;;;5105483;27;61820;-76
2023/04/23 08:36:51;;;;;;;;;3.00;3.00;;;;;;;;5105414;27;61858;-75
2023/04/23 08:39:16;;;;;;;;;7.25;3.00;;;;;;;;5103923;27;61820;-75
2023/04/23 08:41:43;;;;;;;;;8.50;7.50;;;;;;;;5095625;27;62179;-78
2023/04/23 08:44:22;;;;;;;;;5.00;5.00;;;;;;;;5100687;27;63266;-75
2023/04/23 08:46:48;;;;;;;;;6.00;6.00;;;;;;;;5083508;27;62108;-75
2023/04/23 08:49:15;;;;;;;;;6.50;5.25;;;;;;;;5091966;27;62054;-76
2023/04/23 08:51:45;;;;;;;;;7.75;6.25;;;;;;;;5103009;27;61822;-75
2023/04/23 08:54:14;;;;;;;;;4.25;4.25;;;;;;;;5100757;27;63561;-75
2023/04/23 08:56:40;;;;;;;;;7.00;5.00;;;;;;;;5104094;27;62279;-75
2023/04/23 08:59:06;;;;;;;;;5.75;5.00;;;;;;;;5097014;27;63080;-76
2023/04/23 09:01:32;;;;;;;;;5.50;4.00;;;;;;;;5103039;27;61930;-75
2023/04/23 09:03:57;;;;;;;;;8.00;5.25;;;;;;;;5102016;27;62806;-82
2023/04/23 09:06:23;;;;;;;;;4.50;4.25;;;;;;;;5101512;27;62112;-76
2023/04/23 09:08:48;;;;;;;;;6.00;4.00;;;;;;;;5103065;27;61956;-76
2023/04/23 09:11:14;;;;;;;;;7.75;6.75;;;;;;;;5101367;27;61994;-76
2023/04/23 09:13:40;;;;;;;;;8.50;6.00;;;;;;;;5102574;27;62061;-76
2023/04/23 09:16:06;;;;;;;;;7.25;7.00;;;;;;;;5098055;27;61642;-76
2023/04/23 09:18:32;;;;;;;;;6.50;6.50;;;;;;;;5099221;27;62080;-77
2023/04/23 09:21:03;;;;;;;;;5.00;4.00;;;;;;;;5098389;27;62112;-85
2023/04/23 09:23:33;;;;;;;;;9.25;6.50;;;;;;;;5097699;27;62516;-84
2023/04/23 09:26:34;;;;;;;;;8.00;6.25;;;;;;;;5095964;27;62031;-84
2023/04/23 09:29:01;;;;;;;;;3.25;3.25;;;;;;;;5046915;28;61994;-77
2023/04/23 09:31:26;;;;;;;;;5.00;5.00;;;;;;;;5056815;28;62328;-76
2023/04/23 09:33:52;;;;;;;;;4.75;4.75;;;;;;;;5055713;28;62748;-77
2023/04/23 09:36:19;;;;;;;;;4.50;4.00;;;;;;;;5041555;28;62047;-76
2023/04/23 09:38:44;;;;;;;;;8.00;5.50;;;;;;;;5034169;28;62332;-76
2023/04/23 09:41:20;;;;;;;;;5.75;5.75;;;;;;;;5058090;28;62164;-76
2023/04/23 09:43:47;;;;;;;;;6.25;5.50;;;;;;;;5067480;28;63585;-76
2023/04/23 09:46:12;;;;;;;;;6.00;4.75;;;;;;;;5058497;28;61884;-76
2023/04/23 09:48:41;;;;;;;;;8.75;6.00;;;;;;;;5055028;28;62017;-75
2023/04/23 09:51:07;;;;;;;;;5.00;5.00;;;;;;;;5057257;28;62061;-76
2023/04/23 09:53:42;;;;;;;;;5.50;4.00;;;;;;;;5058564;28;62150;-75
2023/04/23 09:56:08;;;;;;;;;3.50;3.50;;;;;;;;5054106;28;61947;-76
2023/04/23 09:58:34;;;;;;;;;8.25;5.00;;;;;;;;5036169;28;62083;-76
2023/04/23 10:01:06;;;;;;;;;4.00;4.00;;;;;;;;5039291;28;61942;-77
2023/04/23 10:03:32;;;;;;;;;5.00;4.00;;;;;;;;5074237;27;63016;-77
2023/04/23 10:05:57;;;;;;;;;7.25;4.50;;;;;;;;5094219;27;62154;-75
2023/04/23 10:08:23;;;;;;;;;3.00;3.00;;;;;;;;5103401;27;62179;-76
2023/04/23 10:10:48;;;;;;;;;3.00;3.00;;;;;;;;5104524;27;61694;-76
2023/04/23 10:13:14;;;;;;;;;3.75;3.75;;;;;;;;5089380;27;62712;-77
2023/04/23 10:15:39;;;;;;;;;3.75;3.25;;;;;;;;5094232;27;62487;-76
2023/04/23 10:18:06;;;;;;;;;4.00;3.00;;;;;;;;5094281;27;62965;-77
2023/04/23 10:20:33;;;;;;;;;4.00;3.00;;;;;;;;5098424;27;62210;-76
2023/04/23 10:22:59;;;;;;;;;7.25;3.50;;;;;;;;5102268;27;62558;-76
2023/04/23 10:25:25;;;;;;;;;4.00;4.00;;;;;;;;5097187;27;62112;-76
2023/04/23 10:27:51;;;;;;;;;5.00;3.25;;;;;;;;5095823;27;61948;-77
2023/04/23 10:30:17;;;;;;;;;3.50;3.50;;;;;;;;5094127;27;62364;-79
2023/04/23 10:32:43;;;;;;;;;3.00;3.00;;;;;;;;5099414;27;61913;-76
2023/04/23 10:35:08;;;;;;;;;5.25;4.00;;;;;;;;5102237;27;61813;-76
2023/04/23 10:37:35;;;;;;;;;4.00;3.75;;;;;;;;5100677;27;62204;-79
2023/04/23 10:40:04;;;;;;;;;5.50;4.00;;;;;;;;5093878;27;62014;-78
2023/04/23 10:42:29;;;;;;;;;2.50;2.50;;;;;;;;5099491;27;61721;-78
2023/04/23 10:44:56;;;;;;;;;3.00;3.00;;;;;;;;5097920;27;61750;-76
2023/04/23 10:47:21;;;;;;;;;3.50;3.00;;;;;;;;5096799;27;62042;-79
2023/04/23 10:49:47;;;;;;;;;4.25;3.00;;;;;;;;5093217;27;62037;-77
2023/04/23 10:52:14;;;;;;;;;4.00;3.00;;;;;;;;5099028;27;61908;-75
2023/04/23 10:54:40;;;;;;;;;3.25;3.25;;;;;;;;5096649;27;62089;-74
2023/04/23 10:57:07;;;;;;;;;2.00;2.00;;;;;;;;5099079;27;61746;-77
2023/04/23 10:59:33;;;;;;;;;4.00;4.00;;;;;;;;5099398;27;62261;-78
2023/04/23 11:02:05;;;;;;;;;4.00;3.00;;;;;;;;5094492;27;61861;-75
2023/04/23 11:04:32;;;;;;;;;4.25;2.50;;;;;;;;5101023;27;61988;-75
2023/04/23 11:07:03;;;;;;;;;2.50;2.50;;;;;;;;5082449;27;62727;-73
2023/04/23 11:09:36;;;;;;;;;6.00;3.00;;;;;;;;5093683;27;62283;-76
2023/04/23 11:12:04;;;;;;;;;3.25;3.00;;;;;;;;5090024;27;61941;-76
2023/04/23 11:14:36;;;;;;;;;4.00;3.00;;;;;;;;5098353;27;62073;-81
2023/04/23 11:17:05;;;;;;;;;3.00;2.00;;;;;;;;5094292;27;61951;-74
2023/04/23 11:19:34;;;;;;;;;3.50;3.00;;;;;;;;5101581;27;61895;-76
2023/04/23 11:21:59;;;;;;;;;2.00;2.00;;;;;;;;5095370;27;62745;-74
2023/04/23 11:24:29;;;;;;;;;1.75;1.75;;;;;;;;5097746;27;61833;-77
2023/04/23 11:26:55;;;;;;;;;6.00;2.25;;;;;;;;5098109;27;62180;-74
2023/04/23 11:29:22;;;;;;;;;3.00;3.00;;;;;;;;5100199;27;61921;-73
2023/04/23 11:31:47;;;;;;;;;4.00;2.25;;;;;;;;5097114;27;62026;-73
2023/04/23 11:34:12;;;;;;;;;4.50;1.50;;;;;;;;5100947;27;62544;-73
2023/04/23 11:36:38;;;;;;;;;3.00;2.00;;;;;;;;5104216;27;62120;-73
2023/04/23 11:39:05;;;;;;;;;5.00;3.25;;;;;;;;5102411;27;62405;-73
2023/04/23 11:41:30;;;;;;;;;3.50;2.75;;;;;;;;5090636;27;62119;-73
2023/04/23 11:43:57;;;;;;;;;2.00;2.00;;;;;;;;5099133;27;62003;-74
2023/04/23 11:46:22;;;;;;;;;3.00;3.00;;;;;;;;5094139;27;61791;-74
2023/04/23 11:48:48;;;;;;;;;3.50;2.00;;;;;;;;5095583;27;61794;-74
2023/04/23 11:51:13;;;;;;;;;2.25;2.00;;;;;;;;5090605;27;61802;-74
2023/04/23 11:53:43;;;;;;;;;3.00;3.00;;;;;;;;5096086;27;61964;-74
2023/04/23 11:56:09;;;;;;;;;3.75;3.75;;;;;;;;5096622;27;61977;-73
2023/04/23 11:58:34;;;;;;;;;3.50;3.50;;;;;;;;5092807;27;62136;-73
2023/04/23 12:01:01;;;;;;;;;2.00;2.00;;;;;;;;5097041;27;61780;-74
2023/04/23 12:03:27;;;;;;;;;0.00;0.00;;;;;;;;5099931;27;61986;-73
2023/04/23 12:05:54;;;;;;;;;2.50;1.00;;;;;;;;5092927;27;61727;-73
2023/04/23 12:08:20;;;;;;;;;1.00;1.00;;;;;;;;5094810;27;61806;-73
2023/04/23 12:10:49;;;;;;;;;1.00;1.00;;;;;;;;5094198;27;61981;-73
2023/04/23 12:13:19;;;;;;;;;1.25;1.00;;;;;;;;5100808;27;62102;-73
2023/04/23 12:15:49;;;;;;;;;1.50;1.50;;;;;;;;5098385;27;62324;-73
2023/04/23 12:18:15;;;;;;;;;1.00;1.00;;;;;;;;5104939;27;61803;-73
2023/04/23 12:20:41;;;;;;;;;0.00;0.00;;;;;;;;5096351;27;62501;-74
2023/04/23 12:23:07;;;;;;;;;0.00;0.00;;;;;;;;5100434;27;61932;-74
2023/04/23 12:25:32;;;;;;;;;0.00;0.00;;;;;;;;5092644;27;62035;-74
2023/04/23 12:27:59;;;;;;;;;2.00;0.25;;;;;;;;5102343;27;61799;-75
2023/04/23 12:30:27;;;;;;;;;1.25;1.25;;;;;;;;5099900;27;61792;-74
2023/04/23 12:32:57;;;;;;;;;0.50;0.50;;;;;;;;5101969;27;62061;-74
2023/04/23 12:35:36;;;;;;;;;1.75;1.00;;;;;;;;5101812;27;61766;-74
2023/04/23 12:38:03;;;;;;;;;1.00;1.00;;;;;;;;5100844;27;61869;-74
2023/04/23 12:40:28;;;;;;;;;2.00;1.00;;;;;;;;5101634;27;63217;-74
2023/04/23 12:42:54;;;;;;;;;0.00;0.00;;;;;;;;5103929;27;61962;-74
2023/04/23 12:45:19;;;;;;;;;0.00;0.00;;;;;;;;5098378;27;62086;-74
2023/04/23 12:47:44;;;;;;;;;2.00;0.00;;;;;;;;5102408;27;62001;-74
2023/04/23 12:50:10;;;;;;;;;0.00;0.00;;;;;;;;5098401;27;63374;-75
2023/04/23 12:52:37;;;;;;;;;1.00;1.00;;;;;;;;5101438;27;61872;-74
2023/04/23 12:55:03;;;;;;;;;0.00;0.00;;;;;;;;5102489;27;62059;-74
2023/04/23 12:57:29;;;;;;;;;2.00;0.00;;;;;;;;5099196;27;62497;-74
2023/04/23 12:59:55;;;;;;;;;1.50;1.00;;;;;;;;5102482;27;63302;-75
2023/04/23 13:02:21;;;;;;;;;0.00;0.00;;;;;;;;5101283;27;62125;-74
2023/04/23 13:04:46;;;;;;;;;0.00;0.00;;;;;;;;5107577;27;61948;-74
2023/04/23 13:07:12;;;;;;;;;0.25;0.25;;;;;;;;5102095;27;61848;-74
2023/04/23 13:09:38;;;;;;;;;0.00;0.00;;;;;;;;5103306;27;61933;-74
2023/04/23 13:12:03;;;;;;;;;1.00;0.00;;;;;;;;5093779;27;62068;-74
2023/04/23 13:14:30;;;;;;;;;0.00;0.00;;;;;;;;5095116;27;62480;-74
2023/04/23 13:16:56;;;;;;;;;0.00;0.00;;;;;;;;5103214;27;62097;-74
2023/04/23 13:19:22;;;;;;;;;0.00;0.00;;;;;;;;5102296;27;64565;-74
2023/04/23 13:21:47;;;;;;;;;0.00;0.00;;;;;;;;5103480;27;61978;-74
2023/04/23 13:24:12;;;;;;;;;1.00;0.00;;;;;;;;5098488;27;61979;-76
2023/04/23 13:26:37;;;;;;;;;0.00;0.00;;;;;;;;5091239;27;62143;-76
2023/04/23 13:29:03;;;;;;;;;0.00;0.00;;;;;;;;5095973;27;61956;-76
2023/04/23 13:31:30;;;;;;;;;0.00;0.00;;;;;;;;5091455;27;61814;-76
2023/04/23 13:33:55;;;;;;;;;0.00;0.00;;;;;;;;5093266;27;62586;-76
2023/04/23 13:36:21;;;;;;;;;0.00;0.00;;;;;;;;5098812;27;61790;-76
2023/04/23 13:38:46;;;;;;;;;1.00;0.00;;;;;;;;5098873;27;62335;-76
2023/04/23 13:41:11;;;;;;;;;0.00;0.00;;;;;;;;5095226;27;61825;-77
2023/04/23 13:43:37;;;;;;;;;0.00;0.00;;;;;;;;5095948;27;62024;-76
2023/04/23 13:46:02;;;;;;;;;0.00;0.00;;;;;;;;5100449;27;61772;-76
2023/04/23 13:48:30;;;;;;;;;0.00;0.00;;;;;;;;5092787;27;62175;-75
2023/04/23 13:50:55;;;;;;;;;0.00;0.00;;;;;;;;5088537;27;61913;-76
2023/04/23 13:53:20;;;;;;;;;0.00;0.00;;;;;;;;5100411;27;61747;-76
2023/04/23 13:55:46;;;;;;;;;0.00;0.00;;;;;;;;5096564;27;62140;-76
2023/04/23 13:58:11;;;;;;;;;0.50;0.00;;;;;;;;5090962;27;62714;-75
2023/04/23 14:00:36;;;;;;;;;0.00;0.00;;;;;;;;5090674;27;61888;-73
2023/04/23 14:03:02;;;;;;;;;0.00;0.00;;;;;;;;5096626;27;61788;-76
2023/04/23 14:05:27;;;;;;;;;0.00;0.00;;;;;;;;5098432;27;62108;-76
2023/04/23 14:07:52;;;;;;;;;0.00;0.00;;;;;;;;5088784;27;62741;-78
2023/04/23 14:10:18;;;;;;;;;0.00;0.00;;;;;;;;5094961;27;62070;-76
2023/04/23 14:12:43;;;;;;;;;0.00;0.00;;;;;;;;5091399;27;62268;-77
2023/04/23 14:15:09;;;;;;;;;0.00;0.00;;;;;;;;5093308;27;61724;-77
2023/04/23 14:17:36;;;;;;;;;1.50;0.00;;;;;;;;5093099;27;63339;-76
2023/04/23 14:20:02;;;;;;;;;0.00;0.00;;;;;;;;5096594;27;61900;-76
2023/04/23 14:22:28;;;;;;;;;1.00;0.00;;;;;;;;5091439;27;62069;-74
2023/04/23 14:25:00;;;;;;;;;0.25;0.00;;;;;;;;5099178;27;61864;-74
2023/04/23 14:27:26;;;;;;;;;0.25;0.00;;;;;;;;5094419;27;62372;-75
2023/04/23 14:29:56;;;;;;;;;0.00;0.00;;;;;;;;5091400;27;61735;-75
2023/04/23 14:32:21;;;;;;;;;0.00;0.00;;;;;;;;5099444;27;61763;-74
2023/04/23 14:34:46;;;;;;;;;0.25;0.00;;;;;;;;5092283;27;62431;-75
2023/04/23 14:37:12;;;;;;;;;0.00;0.00;;;;;;;;5093559;27;62584;-73